Accueil
METAR-TAF:

METAR-TAF

Aéroports :

Lac Charles, Louisiane, États-Unis

latitude: 30-13N, longitude: 093-09W, altitude: 4 m

Observation

Le bulletin a été fait il y a 28 minutes, à 10:15 UTC
Vent 13 kt de nord/nord-est
Température 1°C
Humidité 51%
Pression 1026 hPa
Visibilité: 16.1 km
Nuages fragmentés à une hauteur de 5000 ft
Nuages fragmentés à une hauteur de 8500 ft
Ciel couvert à une hauteur de 12000 ft

METAR: KCWF 211015Z AUTO 02013KT 10SM BKN050 BKN085 OVC120 01/M08 A3030 RMK AO2 T00071077

Heure: 04:43 (10:43 UTC)


TAF: absent

Observations et prévisions météorologiques de plus de 4000 aéroports (messages METAR et TAF).

Les stations disponibles sont représentées par des disques jaunes et rouges sur la carte.

Passer la souris dessus pour voir le nom de la station.

Cliquer dessus pour voir les observations et prévisions météorologiques.

Pour changer de carte: cliquez sur les boutons verts avec une croix noire pour zoomer, sur le bouton vert avec un tiret pour effectuer un zoom arrière, ou sur les flèches vertes pour les cartes adjacentes.


METAR-TAF: